Time;durP1;ratioP1;P1;durP2;ratioP2;P2;SDS_P1;SDS_P2;PMS_P1;PMS_P2;Temp;Humidity;BMP_temperature;BMP_pressure;BME280_temperature;BME280_humidity;BME280_pressure;Samples;Min_cycle;Max_cycle;Signal;HPM_P1;HPM_P2
2022/08/03 00:00:00;;;;;;;0.47;0.47;;;14.10;99.90;;;;;;5070927;28;20202;-84
2022/08/03 00:02:25;;;;;;;1.55;0.70;;;14.10;99.90;;;;;;5054037;28;20247;-83
2022/08/03 00:04:51;;;;;;;0.60;0.60;;;14.10;99.90;;;;;;5069714;28;20239;-84
2022/08/03 00:07:17;;;;;;;0.40;0.40;;;14.10;99.90;;;;;;5055551;28;20236;-83
2022/08/03 00:09:42;;;;;;;0.30;0.30;;;14.20;99.90;;;;;;5054043;28;20197;-83
2022/08/03 00:12:08;;;;;;;0.40;0.40;;;14.20;99.90;;;;;;5050564;28;20206;-84
2022/08/03 00:14:34;;;;;;;0.40;0.40;;;14.20;99.90;;;;;;5033848;28;20198;-82
2022/08/03 00:17:00;;;;;;;0.40;0.40;;;14.20;99.90;;;;;;5047672;28;20285;-85
2022/08/03 00:19:26;;;;;;;0.40;0.40;;;14.30;99.90;;;;;;5055133;28;20189;-85
2022/08/03 00:21:52;;;;;;;0.38;0.38;;;14.20;99.90;;;;;;5053819;28;20255;-86
2022/08/03 00:24:18;;;;;;;0.40;0.40;;;14.30;99.90;;;;;;5053782;28;20194;-86
2022/08/03 00:26:44;;;;;;;2.15;1.48;;;14.30;99.90;;;;;;5054231;28;20202;-86
2022/08/03 00:29:10;;;;;;;0.32;0.32;;;14.30;99.90;;;;;;5054967;28;20207;-86
2022/08/03 00:31:35;;;;;;;0.40;0.40;;;14.30;99.90;;;;;;5054104;28;20296;-85
2022/08/03 00:34:01;;;;;;;1.20;0.60;;;14.30;99.90;;;;;;5054461;28;20232;-85
2022/08/03 00:36:27;;;;;;;0.40;0.40;;;14.30;99.90;;;;;;5053531;28;20285;-84
2022/08/03 00:38:53;;;;;;;0.40;0.40;;;14.40;99.90;;;;;;5053269;28;20194;-84
2022/08/03 00:41:19;;;;;;;0.40;0.40;;;14.40;99.90;;;;;;5055485;28;20277;-84
2022/08/03 00:43:46;;;;;;;0.40;0.40;;;14.40;99.90;;;;;;5036002;28;20268;-84
2022/08/03 00:46:12;;;;;;;0.40;0.40;;;14.40;99.90;;;;;;5034504;28;20653;-86
2022/08/03 00:48:38;;;;;;;0.57;0.57;;;14.40;99.90;;;;;;5035311;28;20194;-85
2022/08/03 00:51:05;;;;;;;0.50;0.50;;;14.50;99.90;;;;;;5034238;28;20217;-86
2022/08/03 00:53:31;;;;;;;0.40;0.40;;;14.50;99.90;;;;;;5050661;28;20718;-85
2022/08/03 00:55:57;;;;;;;0.40;0.40;;;14.50;99.90;;;;;;5034008;28;20190;-85
2022/08/03 00:58:23;;;;;;;0.40;0.40;;;14.50;99.90;;;;;;5033974;28;20317;-85
2022/08/03 01:00:49;;;;;;;0.38;0.38;;;14.50;99.90;;;;;;5037176;28;20262;-85
2022/08/03 01:03:15;;;;;;;0.30;0.30;;;14.60;99.90;;;;;;5053934;28;20197;-85
2022/08/03 01:05:54;;;;;;;0.32;0.32;;;14.60;99.90;;;;;;5052993;28;20555;-85
2022/08/03 01:09:08;;;;;;;0.95;0.73;;;14.60;99.90;;;;;;5049366;28;20202;-84
2022/08/03 01:12:00;;;;;;;0.40;0.40;;;14.60;99.90;;;;;;5032169;28;20665;-86
2022/08/03 01:14:44;;;;;;;0.40;0.40;;;14.70;99.90;;;;;;5012846;28;20290;-85
2022/08/03 01:17:15;;;;;;;0.30;0.30;;;14.70;99.90;;;;;;5012841;28;20559;-85
2022/08/03 01:19:52;;;;;;;0.40;0.40;;;14.70;99.90;;;;;;5012819;28;20242;-85
2022/08/03 01:22:43;;;;;;;0.30;0.30;;;14.80;99.90;;;;;;5012689;28;20284;-84
2022/08/03 01:25:15;;;;;;;0.30;0.30;;;14.80;99.90;;;;;;4996248;28;20211;-83
2022/08/03 01:27:59;;;;;;;0.40;0.40;;;14.80;99.90;;;;;;5012227;28;20206;-84
2022/08/03 01:30:30;;;;;;;0.50;0.50;;;14.90;99.90;;;;;;5011887;28;20540;-84
2022/08/03 01:33:05;;;;;;;1.02;1.00;;;14.90;99.90;;;;;;4995887;28;20698;-84
2022/08/03 01:35:35;;;;;;;0.40;0.40;;;14.90;99.90;;;;;;5007771;28;20201;-84
2022/08/03 01:38:05;;;;;;;0.30;0.30;;;14.90;99.90;;;;;;5015436;28;20198;-84
2022/08/03 01:40:35;;;;;;;0.40;0.40;;;15.00;99.90;;;;;;5015277;28;20198;-83
2022/08/03 01:43:03;;;;;;;0.40;0.40;;;15.00;99.90;;;;;;5015239;28;20226;-83
2022/08/03 01:45:30;;;;;;;0.30;0.30;;;15.00;99.90;;;;;;5032318;28;20206;-84
2022/08/03 01:47:57;;;;;;;0.63;0.63;;;15.00;99.90;;;;;;5034423;28;20601;-84
2022/08/03 01:50:27;;;;;;;0.68;0.50;;;15.10;99.90;;;;;;5032853;28;20550;-85
2022/08/03 01:52:55;;;;;;;18.25;1.00;;;15.10;99.90;;;;;;5032226;28;20198;-85
2022/08/03 01:55:22;;;;;;;0.38;0.38;;;15.10;99.90;;;;;;5031979;28;20221;-85
2022/08/03 01:57:50;;;;;;;0.30;0.30;;;15.20;99.90;;;;;;5041504;28;20653;-85
2022/08/03 02:00:16;;;;;;;0.50;0.50;;;15.30;99.90;;;;;;5050811;28;20594;-86
2022/08/03 02:02:45;;;;;;;0.40;0.40;;;15.30;99.90;;;;;;5047631;28;20191;-84
2022/08/03 02:05:11;;;;;;;0.40;0.40;;;15.30;99.90;;;;;;5049853;28;20201;-84
2022/08/03 02:07:40;;;;;;;0.30;0.30;;;15.30;99.90;;;;;;5052015;28;20241;-85
2022/08/03 02:10:08;;;;;;;3.55;1.33;;;15.30;99.90;;;;;;5051640;28;20221;-84
2022/08/03 02:12:36;;;;;;;0.40;0.40;;;15.40;99.90;;;;;;5051302;28;20623;-84
2022/08/03 02:15:02;;;;;;;0.40;0.40;;;15.40;99.90;;;;;;5052989;28;20665;-86
2022/08/03 02:17:31;;;;;;;0.40;0.40;;;15.40;99.90;;;;;;5050974;28;20276;-87
2022/08/03 02:19:58;;;;;;;0.40;0.40;;;15.50;99.90;;;;;;5051623;28;20207;-86
2022/08/03 02:22:25;;;;;;;0.40;0.40;;;15.50;99.90;;;;;;5048707;28;20209;-84
2022/08/03 02:24:51;;;;;;;0.40;0.40;;;15.50;99.90;;;;;;5031845;28;20202;-87
2022/08/03 02:27:21;;;;;;;0.30;0.30;;;15.60;99.90;;;;;;5032764;28;20273;-87
2022/08/03 02:29:51;;;;;;;0.40;0.40;;;15.50;99.90;;;;;;5031966;28;20503;-84
2022/08/03 02:32:24;;;;;;;0.75;0.75;;;15.60;99.90;;;;;;5031360;28;20206;-85
2022/08/03 02:34:53;;;;;;;0.40;0.40;;;15.60;99.90;;;;;;5038932;28;20189;-85
2022/08/03 02:37:22;;;;;;;0.70;0.70;;;15.60;99.90;;;;;;5052523;28;20190;-84
2022/08/03 02:39:52;;;;;;;0.38;0.38;;;15.70;99.90;;;;;;5052768;28;20194;-85
2022/08/03 02:42:22;;;;;;;0.50;0.50;;;15.70;99.90;;;;;;5049688;28;20710;-84
2022/08/03 02:44:50;;;;;;;0.57;0.57;;;15.70;99.90;;;;;;5051704;28;20228;-85
2022/08/03 02:47:19;;;;;;;0.55;0.55;;;15.70;99.90;;;;;;5051552;28;20202;-85
2022/08/03 02:49:47;;;;;;;0.30;0.30;;;15.80;99.90;;;;;;5068064;28;20197;-84
2022/08/03 02:52:13;;;;;;;0.45;0.45;;;15.80;99.90;;;;;;5068126;28;20213;-84
2022/08/03 02:54:40;;;;;;;0.43;0.43;;;15.80;99.90;;;;;;5067745;28;20215;-85
2022/08/03 02:57:10;;;;;;;1.27;0.73;;;15.80;99.90;;;;;;5051211;28;20200;-85
2022/08/03 02:59:38;;;;;;;0.40;0.40;;;15.90;99.90;;;;;;5050819;28;20204;-86
2022/08/03 03:02:03;;;;;;;0.55;0.55;;;15.90;99.90;;;;;;5051570;28;20229;-86
2022/08/03 03:04:30;;;;;;;0.70;0.57;;;15.90;99.90;;;;;;5050551;28;20609;-85
2022/08/03 03:06:56;;;;;;;0.45;0.45;;;16.00;99.90;;;;;;5052241;28;20229;-84
2022/08/03 03:09:23;;;;;;;0.30;0.30;;;16.00;99.90;;;;;;5050948;28;20247;-85
2022/08/03 03:11:50;;;;;;;6.38;0.70;;;16.00;99.90;;;;;;5051399;28;20213;-85
2022/08/03 03:14:18;;;;;;;0.30;0.30;;;16.00;99.90;;;;;;5052416;28;20197;-85
2022/08/03 03:16:44;;;;;;;0.60;0.60;;;16.00;99.90;;;;;;5052572;28;20192;-86
2022/08/03 03:19:13;;;;;;;0.50;0.50;;;16.00;99.90;;;;;;5052080;28;20250;-84
2022/08/03 03:21:39;;;;;;;14.15;0.68;;;16.10;99.90;;;;;;5050047;28;20201;-85
2022/08/03 03:24:06;;;;;;;0.45;0.45;;;16.10;99.90;;;;;;5050848;28;20201;-85
2022/08/03 03:26:33;;;;;;;0.52;0.50;;;16.10;99.90;;;;;;5050492;28;20201;-85
2022/08/03 03:29:00;;;;;;;1.25;0.70;;;16.10;99.90;;;;;;5052207;28;20221;-83
2022/08/03 03:31:26;;;;;;;0.55;0.43;;;16.10;99.90;;;;;;5047074;28;20672;-83
2022/08/03 03:33:52;;;;;;;0.47;0.47;;;16.10;99.90;;;;;;5031085;28;20201;-83
2022/08/03 03:36:18;;;;;;;0.68;0.68;;;16.20;99.90;;;;;;5050539;28;20368;-83
2022/08/03 03:38:44;;;;;;;0.40;0.40;;;16.20;99.90;;;;;;5067338;28;20198;-83
2022/08/03 03:41:10;;;;;;;0.40;0.40;;;16.20;99.90;;;;;;5067555;28;20202;-83
2022/08/03 03:43:36;;;;;;;0.60;0.60;;;16.20;99.90;;;;;;5051608;28;20253;-83
2022/08/03 03:46:02;;;;;;;0.95;0.70;;;16.20;99.90;;;;;;5051851;28;20563;-83
2022/08/03 03:48:27;;;;;;;0.70;0.70;;;16.20;99.90;;;;;;5051755;28;20217;-84
2022/08/03 03:50:53;;;;;;;0.35;0.35;;;16.20;99.90;;;;;;5067494;28;20240;-84
2022/08/03 03:53:19;;;;;;;0.38;0.38;;;16.20;99.90;;;;;;5051887;28;20685;-84
2022/08/03 03:55:45;;;;;;;0.55;0.55;;;16.20;99.90;;;;;;5055026;28;20268;-84
2022/08/03 03:58:11;;;;;;;0.60;0.60;;;16.30;99.90;;;;;;5055008;28;20224;-85
2022/08/03 04:00:37;;;;;;;0.57;0.57;;;16.30;99.90;;;;;;5055257;28;20228;-85
2022/08/03 04:03:02;;;;;;;0.35;0.35;;;16.30;99.90;;;;;;5054474;28;20296;-85
2022/08/03 04:11:17;;;;;;;0.30;0.30;;;16.30;99.90;;;;;;5055712;28;20270;-85
2022/08/03 04:13:53;;;;;;;0.45;0.45;;;16.40;99.90;;;;;;5054163;28;20190;-84
2022/08/03 04:16:24;;;;;;;0.28;0.28;;;16.40;99.90;;;;;;5053983;28;20695;-84
2022/08/03 04:18:57;;;;;;;0.70;0.68;;;16.40;99.90;;;;;;5054147;28;20247;-82
2022/08/03 04:21:27;;;;;;;0.30;0.30;;;16.40;99.90;;;;;;5053878;28;20225;-84
2022/08/03 04:23:58;;;;;;;0.52;0.52;;;16.40;99.90;;;;;;5054042;28;20664;-83
2022/08/03 04:26:28;;;;;;;0.77;0.77;;;16.40;99.90;;;;;;5053702;28;20198;-84
2022/08/03 04:28:53;;;;;;;0.40;0.40;;;16.50;99.90;;;;;;5053625;28;20197;-83
2022/08/03 04:31:23;;;;;;;0.40;0.40;;;16.50;99.90;;;;;;5054560;28;20267;-83
2022/08/03 04:33:51;;;;;;;0.30;0.30;;;16.50;99.90;;;;;;5053382;28;20225;-82
2022/08/03 04:36:25;;;;;;;0.43;0.43;;;16.50;99.90;;;;;;5052952;28;20193;-81
2022/08/03 04:39:13;;;;;;;0.57;0.57;;;16.50;99.90;;;;;;5054497;28;20305;-81
2022/08/03 04:41:40;;;;;;;0.35;0.35;;;16.60;99.90;;;;;;5069827;28;20660;-83
2022/08/03 04:44:07;;;;;;;0.85;0.60;;;16.60;99.90;;;;;;5069425;28;20692;-83
2022/08/03 04:46:37;;;;;;;0.52;0.52;;;16.60;99.90;;;;;;5069313;28;20193;-83
2022/08/03 04:49:04;;;;;;;0.40;0.40;;;16.60;99.90;;;;;;5052887;28;20247;-83
2022/08/03 04:51:31;;;;;;;0.63;0.57;;;16.60;99.90;;;;;;5054117;28;20288;-83
2022/08/03 04:53:56;;;;;;;0.38;0.38;;;16.60;99.90;;;;;;5054139;28;20193;-84
2022/08/03 04:56:22;;;;;;;0.52;0.52;;;16.60;99.90;;;;;;5053077;28;20204;-83
2022/08/03 04:58:48;;;;;;;1.40;1.30;;;16.60;99.90;;;;;;5053053;28;20202;-83
2022/08/03 05:01:15;;;;;;;0.82;0.80;;;16.70;99.90;;;;;;5053473;28;20664;-83
2022/08/03 05:03:40;;;;;;;0.50;0.50;;;16.70;99.90;;;;;;5052821;28;20194;-83
2022/08/03 05:06:06;;;;;;;0.60;0.60;;;16.70;99.90;;;;;;5052305;28;20695;-83
2022/08/03 05:08:32;;;;;;;4.32;0.82;;;16.70;99.90;;;;;;5054236;28;20201;-83
2022/08/03 05:10:58;;;;;;;0.50;0.50;;;16.70;99.90;;;;;;5052753;28;20286;-83
2022/08/03 05:13:23;;;;;;;0.60;0.60;;;16.80;99.90;;;;;;5052817;28;20280;-84
2022/08/03 05:15:49;;;;;;;1.33;0.93;;;16.80;99.90;;;;;;5054416;28;20683;-83
2022/08/03 05:18:15;;;;;;;0.60;0.60;;;16.80;99.90;;;;;;5052938;28;20196;-83
2022/08/03 05:20:41;;;;;;;0.40;0.40;;;16.90;99.90;;;;;;5053606;28;20187;-83
2022/08/03 05:23:06;;;;;;;0.32;0.32;;;16.90;99.90;;;;;;5052516;28;20284;-83
2022/08/03 05:25:32;;;;;;;0.57;0.57;;;16.90;99.90;;;;;;5052654;28;20244;-83
2022/08/03 05:27:58;;;;;;;0.40;0.40;;;16.90;99.90;;;;;;5052676;28;20193;-83
2022/08/03 05:30:23;;;;;;;0.57;0.52;;;16.90;99.90;;;;;;5068819;28;20204;-84
2022/08/03 05:32:49;;;;;;;0.30;0.30;;;16.90;99.90;;;;;;5052215;28;20193;-83
2022/08/03 05:35:15;;;;;;;3.30;0.93;;;17.00;99.90;;;;;;5052979;28;20197;-84
2022/08/03 05:37:41;;;;;;;0.50;0.50;;;17.00;99.90;;;;;;5052289;28;20284;-84
2022/08/03 05:40:07;;;;;;;0.70;0.70;;;17.00;99.90;;;;;;5068995;28;20197;-84
2022/08/03 05:42:35;;;;;;;0.47;0.45;;;17.00;99.90;;;;;;5048401;28;20673;-84
2022/08/03 05:45:16;;;;;;;0.40;0.40;;;17.00;99.90;;;;;;5040993;28;20531;-85
2022/08/03 05:47:43;;;;;;;0.73;0.73;;;17.00;99.90;;;;;;5053422;28;20565;-84
2022/08/03 05:50:10;;;;;;;0.60;0.60;;;17.10;99.90;;;;;;5051783;28;20197;-85
2022/08/03 05:52:36;;;;;;;0.50;0.50;;;17.20;99.90;;;;;;5051553;28;20696;-84
2022/08/03 05:55:08;;;;;;;1.23;0.73;;;17.20;99.90;;;;;;5051614;28;20202;-86
2022/08/03 05:57:34;;;;;;;8.55;0.90;;;17.30;99.90;;;;;;5052047;28;20201;-84
2022/08/03 06:00:06;;;;;;;0.77;0.77;;;17.40;99.90;;;;;;5053333;28;20194;-84
2022/08/03 06:02:32;;;;;;;0.30;0.30;;;17.40;99.90;;;;;;5051784;28;20201;-84
2022/08/03 06:04:57;;;;;;;0.40;0.40;;;17.40;99.90;;;;;;5053600;28;20422;-84
2022/08/03 06:07:23;;;;;;;0.50;0.50;;;17.40;99.90;;;;;;5053293;28;20255;-84
2022/08/03 06:09:49;;;;;;;0.50;0.50;;;17.50;99.90;;;;;;5053377;28;20195;-83
2022/08/03 06:12:14;;;;;;;0.30;0.30;;;17.50;99.90;;;;;;5052125;28;20237;-83
2022/08/03 06:14:40;;;;;;;0.63;0.63;;;17.50;99.90;;;;;;5052727;28;20189;-83
2022/08/03 06:17:06;;;;;;;0.70;0.70;;;17.50;99.90;;;;;;5050583;28;20198;-83
2022/08/03 06:19:32;;;;;;;0.57;0.45;;;17.60;99.90;;;;;;5051270;28;20284;-82
2022/08/03 06:21:58;;;;;;;1.52;0.50;;;17.60;99.90;;;;;;5051475;28;20288;-82
2022/08/03 06:24:23;;;;;;;0.40;0.40;;;17.70;99.90;;;;;;5067907;28;20319;-83
2022/08/03 06:26:49;;;;;;;0.30;0.30;;;17.90;99.90;;;;;;5051498;28;20205;-82
2022/08/03 06:29:15;;;;;;;0.65;0.65;;;18.00;99.90;;;;;;5052602;28;20208;-82
2022/08/03 06:31:40;;;;;;;0.93;0.60;;;18.10;99.90;;;;;;5051417;28;20276;-81
2022/08/03 06:34:06;;;;;;;0.47;0.47;;;18.10;99.90;;;;;;5052464;28;20216;-84
2022/08/03 06:36:32;;;;;;;1.63;0.90;;;18.30;99.90;;;;;;5067899;28;20220;-91
2022/08/03 06:38:59;;;;;;;0.55;0.55;;;18.30;99.90;;;;;;5068116;28;20672;-82
2022/08/03 06:41:25;;;;;;;0.57;0.57;;;18.40;99.90;;;;;;5051436;28;20193;-81
2022/08/03 06:43:51;;;;;;;0.30;0.30;;;18.50;99.90;;;;;;5052779;28;20224;-82
2022/08/03 06:46:17;;;;;;;2.95;1.08;;;18.60;99.90;;;;;;5051467;28;20288;-82
2022/08/03 06:48:42;;;;;;;1.30;1.00;;;18.70;99.90;;;;;;5051961;28;20197;-81
2022/08/03 06:51:09;;;;;;;0.50;0.50;;;18.80;99.90;;;;;;5050691;28;20236;-81
2022/08/03 06:53:35;;;;;;;0.38;0.38;;;18.80;99.90;;;;;;5052306;28;20240;-81
2022/08/03 06:56:00;;;;;;;0.50;0.50;;;18.80;99.90;;;;;;5051178;28;20198;-82
2022/08/03 06:58:26;;;;;;;0.30;0.30;;;19.10;99.90;;;;;;5051113;28;20193;-82
2022/08/03 07:00:52;;;;;;;0.45;0.45;;;19.20;99.90;;;;;;5052185;28;20204;-82
2022/08/03 07:03:18;;;;;;;1.17;1.08;;;19.10;99.90;;;;;;5050938;28;20635;-82
2022/08/03 07:05:46;;;;;;;0.43;0.43;;;19.10;99.90;;;;;;5050636;28;20224;-82
2022/08/03 07:08:13;;;;;;;0.75;0.70;;;19.10;99.90;;;;;;5036078;28;20201;-83
2022/08/03 07:10:39;;;;;;;0.50;0.50;;;19.10;99.90;;;;;;5042199;28;20582;-82
2022/08/03 07:13:05;;;;;;;0.93;0.63;;;19.00;99.90;;;;;;5041916;28;20198;-83
2022/08/03 07:15:31;;;;;;;0.30;0.30;;;19.10;99.90;;;;;;5052111;28;20224;-83
2022/08/03 07:17:57;;;;;;;0.55;0.55;;;19.00;99.90;;;;;;5050323;28;20190;-83
2022/08/03 07:20:23;;;;;;;0.55;0.55;;;18.90;99.90;;;;;;5052046;28;20200;-83
2022/08/03 07:22:49;;;;;;;0.73;0.73;;;19.10;99.90;;;;;;5050281;28;20197;-83
2022/08/03 07:25:14;;;;;;;0.95;0.70;;;19.10;99.90;;;;;;5051218;28;20205;-82
2022/08/03 07:27:44;;;;;;;0.32;0.32;;;19.10;99.90;;;;;;5051060;28;20201;-83
2022/08/03 07:30:11;;;;;;;1.13;0.82;;;19.20;99.90;;;;;;5055945;28;20205;-84
2022/08/03 07:32:37;;;;;;;0.30;0.30;;;19.20;99.90;;;;;;5054215;28;20217;-84
2022/08/03 07:35:04;;;;;;;0.60;0.60;;;19.10;99.90;;;;;;5056059;28;20206;-83
2022/08/03 07:37:30;;;;;;;0.47;0.47;;;19.20;99.90;;;;;;5056065;28;20194;-83
2022/08/03 07:39:56;;;;;;;0.28;0.28;;;19.10;99.90;;;;;;5055876;28;20276;-84
2022/08/03 07:42:24;;;;;;;0.40;0.40;;;19.10;99.90;;;;;;5053599;28;20217;-82
2022/08/03 07:44:50;;;;;;;0.45;0.45;;;19.00;99.90;;;;;;5055785;28;20680;-83
2022/08/03 07:47:21;;;;;;;0.30;0.30;;;18.90;99.90;;;;;;5054341;28;20247;-83
2022/08/03 07:49:47;;;;;;;0.30;0.30;;;18.80;99.90;;;;;;5055452;28;20715;-83
2022/08/03 07:54:57;;;;;;;0.30;0.30;;;18.70;99.90;;;;;;5055693;28;20212;-82
2022/08/03 07:57:23;;;;;;;0.40;0.40;;;18.60;99.90;;;;;;5054035;28;20189;-81
2022/08/03 07:59:48;;;;;;;0.30;0.30;;;18.50;99.90;;;;;;5055942;28;20220;-81
2022/08/03 08:02:14;;;;;;;0.63;0.63;;;18.50;99.90;;;;;;5054218;28;20194;-81
2022/08/03 08:04:40;;;;;;;0.40;0.40;;;18.50;99.90;;;;;;5053099;28;20212;-81
2022/08/03 08:07:06;;;;;;;0.45;0.45;;;18.50;99.90;;;;;;5055202;28;20277;-81
2022/08/03 08:09:33;;;;;;;0.50;0.50;;;18.40;99.90;;;;;;5053698;28;20325;-81
2022/08/03 08:11:58;;;;;;;0.30;0.30;;;18.40;99.90;;;;;;5055177;28;20729;-81
2022/08/03 08:14:24;;;;;;;0.20;0.20;;;18.40;99.90;;;;;;5054915;28;20276;-81
2022/08/03 08:16:50;;;;;;;0.30;0.30;;;18.40;99.90;;;;;;5044989;28;20324;-82
2022/08/03 08:19:16;;;;;;;0.50;0.50;;;18.40;99.90;;;;;;5033975;28;20197;-81
2022/08/03 08:21:43;;;;;;;0.20;0.20;;;18.30;99.90;;;;;;5033851;28;20683;-81
2022/08/03 08:24:09;;;;;;;0.65;0.50;;;18.20;99.90;;;;;;5035102;28;20555;-80
2022/08/03 08:26:35;;;;;;;0.70;0.70;;;18.20;99.90;;;;;;5034684;28;20699;-80
2022/08/03 08:29:01;;;;;;;0.60;0.60;;;18.10;99.90;;;;;;5033673;28;20202;-82
2022/08/03 08:31:26;;;;;;;1.77;1.45;;;18.10;99.90;;;;;;5033381;28;20298;-82
2022/08/03 08:33:52;;;;;;;0.68;0.68;;;18.20;99.90;;;;;;5033715;28;20252;-82
2022/08/03 08:36:18;;;;;;;0.40;0.40;;;18.20;99.90;;;;;;5033318;28;20202;-82
2022/08/03 08:38:44;;;;;;;0.50;0.50;;;18.10;99.90;;;;;;5046882;28;20217;-81
2022/08/03 08:41:11;;;;;;;0.68;0.68;;;18.10;99.90;;;;;;5053760;28;20672;-81
2022/08/03 08:43:37;;;;;;;2.05;0.55;;;18.00;99.90;;;;;;5053104;28;20275;-82
2022/08/03 08:46:06;;;;;;;0.55;0.55;;;18.00;99.90;;;;;;5053334;28;20224;-81
2022/08/03 08:48:35;;;;;;;0.30;0.30;;;18.00;99.90;;;;;;5053139;28;20665;-81
2022/08/03 08:51:01;;;;;;;0.38;0.38;;;18.10;99.90;;;;;;5053099;28;20217;-81
2022/08/03 08:53:34;;;;;;;0.75;0.50;;;18.20;99.90;;;;;;5054257;28;20190;-82
2022/08/03 08:56:02;;;;;;;0.50;0.50;;;18.20;99.90;;;;;;5054752;28;20185;-82
2022/08/03 08:58:31;;;;;;;0.47;0.47;;;18.20;99.90;;;;;;5052851;28;20190;-81
2022/08/03 09:00:57;;;;;;;0.20;0.20;;;18.40;99.90;;;;;;5053368;28;20205;-81
2022/08/03 09:03:22;;;;;;;0.30;0.30;;;18.80;99.90;;;;;;5052770;28;20197;-81
2022/08/03 09:05:48;;;;;;;0.30;0.30;;;19.10;99.90;;;;;;5052787;28;20198;-81
2022/08/03 09:08:14;;;;;;;0.52;0.30;;;19.10;99.90;;;;;;5053095;28;20206;-81
2022/08/03 09:10:40;;;;;;;2.67;0.52;;;19.20;99.90;;;;;;5053190;28;20202;-82
2022/08/03 09:13:07;;;;;;;0.40;0.40;;;19.10;99.90;;;;;;5049553;28;20202;-82
2022/08/03 09:15:33;;;;;;;0.30;0.30;;;19.00;99.90;;;;;;5031676;28;20202;-82
2022/08/03 09:18:01;;;;;;;0.32;0.32;;;18.90;99.90;;;;;;5050233;28;20221;-82
2022/08/03 09:20:33;;;;;;;0.30;0.30;;;18.70;99.90;;;;;;5053924;28;20194;-82
2022/08/03 09:23:01;;;;;;;0.57;0.57;;;18.60;99.90;;;;;;5054092;28;20272;-82
2022/08/03 09:25:44;;;;;;;0.50;0.50;;;18.50;99.90;;;;;;5052495;28;20563;-82
2022/08/03 09:28:12;;;;;;;0.30;0.30;;;18.40;99.90;;;;;;5052448;28;20198;-81
2022/08/03 09:30:44;;;;;;;0.28;0.28;;;18.40;99.90;;;;;;5053501;28;20560;-81
2022/08/03 09:33:12;;;;;;;0.22;0.22;;;18.40;99.90;;;;;;5052807;28;20312;-81
2022/08/03 09:35:46;;;;;;;0.20;0.20;;;18.30;99.90;;;;;;5049184;28;20654;-82
2022/08/03 09:38:25;;;;;;;0.20;0.20;;;18.30;99.90;;;;;;5033527;28;20224;-82
2022/08/03 09:40:51;;;;;;;0.30;0.30;;;18.20;99.90;;;;;;5034013;28;20657;-82
2022/08/03 09:43:18;;;;;;;0.20;0.20;;;18.10;99.90;;;;;;5033682;28;20720;-82
2022/08/03 09:45:44;;;;;;;0.22;0.22;;;18.10;99.90;;;;;;5033717;28;20221;-81
2022/08/03 09:48:20;;;;;;;0.25;0.25;;;18.10;99.90;;;;;;5032312;28;20260;-82
2022/08/03 09:50:49;;;;;;;0.45;0.45;;;18.10;99.90;;;;;;5031996;28;20204;-82
2022/08/03 09:53:17;;;;;;;0.30;0.30;;;18.00;99.90;;;;;;5032628;28;20202;-81
2022/08/03 09:55:56;;;;;;;0.28;0.28;;;18.00;99.90;;;;;;5031914;28;20285;-81
2022/08/03 09:58:23;;;;;;;0.30;0.30;;;18.10;99.90;;;;;;5033166;28;20194;-81
2022/08/03 10:01:03;;;;;;;0.30;0.30;;;18.10;99.90;;;;;;5031992;28;20265;-81
2022/08/03 10:03:34;;;;;;;0.20;0.20;;;18.10;99.90;;;;;;5031997;28;20197;-81
2022/08/03 10:06:14;;;;;;;0.40;0.40;;;18.10;99.90;;;;;;5032210;28;20206;-81
2022/08/03 10:08:40;;;;;;;0.30;0.30;;;18.20;99.90;;;;;;5035939;28;20671;-81
2022/08/03 10:11:05;;;;;;;0.50;0.50;;;18.30;99.90;;;;;;5052995;28;20201;-81
2022/08/03 10:13:32;;;;;;;0.40;0.40;;;18.40;99.90;;;;;;5053065;28;20265;-81
2022/08/03 10:15:58;;;;;;;0.40;0.40;;;18.50;99.90;;;;;;5050925;28;20193;-81
2022/08/03 10:18:23;;;;;;;0.43;0.43;;;18.70;99.90;;;;;;5047130;28;20201;-81
2022/08/03 10:20:53;;;;;;;0.40;0.40;;;18.80;99.90;;;;;;5048112;28;20305;-82
2022/08/03 10:23:20;;;;;;;0.35;0.35;;;19.00;99.90;;;;;;5048018;28;20277;-82
2022/08/03 10:25:48;;;;;;;0.40;0.40;;;19.20;99.90;;;;;;5048336;28;20190;-82
2022/08/03 10:28:17;;;;;;;0.40;0.40;;;19.20;99.90;;;;;;5048436;28;20202;-82
2022/08/03 10:30:47;;;;;;;0.77;0.70;;;19.30;99.90;;;;;;5058456;28;20584;-82
2022/08/03 10:33:23;;;;;;;1.75;0.55;;;19.30;99.90;;;;;;5051397;28;20204;-82
2022/08/03 10:35:53;;;;;;;0.50;0.50;;;19.20;99.90;;;;;;5052603;28;20680;-82
2022/08/03 10:38:25;;;;;;;0.32;0.32;;;19.10;99.90;;;;;;5052363;28;20695;-82
2022/08/03 10:40:54;;;;;;;0.73;0.60;;;19.10;99.90;;;;;;5051709;28;20213;-82
2022/08/03 10:43:24;;;;;;;0.57;0.57;;;19.10;99.90;;;;;;5052181;28;20228;-82
2022/08/03 10:45:50;;;;;;;0.32;0.32;;;19.10;99.90;;;;;;5051314;28;20738;-82
2022/08/03 10:48:18;;;;;;;0.45;0.45;;;19.10;99.90;;;;;;5052418;28;20272;-82
2022/08/03 10:50:45;;;;;;;0.98;0.47;;;19.10;99.90;;;;;;5051561;28;20193;-82
2022/08/03 10:53:10;;;;;;;1.20;0.70;;;19.00;99.90;;;;;;5051226;28;20247;-82
2022/08/03 10:58:51;;;;;;;1.02;0.80;;;19.00;99.90;;;;;;5052527;28;20680;-82
2022/08/03 11:01:18;;;;;;;0.30;0.30;;;18.90;99.90;;;;;;5052235;28;20200;-81
2022/08/03 11:03:53;;;;;;;0.60;0.50;;;18.70;99.90;;;;;;5053741;28;20233;-82
2022/08/03 11:06:20;;;;;;;0.65;0.65;;;18.70;99.90;;;;;;5051325;28;20251;-82
2022/08/03 11:08:48;;;;;;;0.60;0.50;;;18.70;99.90;;;;;;5051987;28;20270;-81
2022/08/03 11:11:16;;;;;;;0.50;0.50;;;18.70;99.90;;;;;;5035016;28;20700;-82
2022/08/03 11:14:14;;;;;;;0.50;0.50;;;18.60;99.90;;;;;;5035791;28;20205;-82
2022/08/03 11:16:49;;;;;;;0.47;0.47;;;18.60;99.90;;;;;;5058539;28;20220;-82
2022/08/03 11:19:18;;;;;;;0.77;0.77;;;18.50;99.90;;;;;;5056570;28;20651;-82
2022/08/03 11:21:50;;;;;;;1.23;0.98;;;18.50;99.90;;;;;;5056078;28;20205;-83
2022/08/03 11:24:42;;;;;;;0.77;0.60;;;18.50;99.90;;;;;;5056386;28;20201;-83
2022/08/03 11:27:17;;;;;;;1.08;0.98;;;18.50;99.90;;;;;;5056215;28;20679;-83
2022/08/03 11:30:01;;;;;;;0.30;0.30;;;18.50;99.90;;;;;;5055683;28;20558;-83
2022/08/03 11:32:39;;;;;;;1.10;1.00;;;18.50;99.90;;;;;;5055788;28;20212;-83
2022/08/03 11:35:10;;;;;;;1.15;1.05;;;18.50;99.90;;;;;;5055913;28;20680;-83
2022/08/03 11:37:56;;;;;;;0.88;0.88;;;18.50;99.90;;;;;;5054268;28;20194;-84
2022/08/03 11:40:47;;;;;;;0.77;0.77;;;18.40;99.90;;;;;;5054315;28;20204;-83
2022/08/03 11:43:36;;;;;;;0.82;0.82;;;18.40;99.90;;;;;;5055866;28;20225;-83
2022/08/03 11:46:06;;;;;;;2.58;1.63;;;18.40;99.90;;;;;;5054425;28;20685;-82
2022/08/03 11:48:38;;;;;;;0.70;0.70;;;18.40;99.90;;;;;;5055431;28;20255;-82
2022/08/03 11:51:07;;;;;;;0.55;0.55;;;18.40;99.90;;;;;;5055868;28;20700;-83
2022/08/03 11:53:33;;;;;;;0.70;0.70;;;18.40;99.90;;;;;;5054337;28;20193;-82
2022/08/03 11:56:00;;;;;;;0.65;0.65;;;18.30;99.90;;;;;;5055296;28;20227;-83
2022/08/03 11:58:27;;;;;;;0.75;0.50;;;18.40;99.90;;;;;;5054181;28;20199;-83
2022/08/03 12:01:06;;;;;;;0.50;0.50;;;18.30;99.90;;;;;;5053639;28;20280;-82
2022/08/03 12:03:33;;;;;;;0.43;0.43;;;18.30;99.90;;;;;;5053866;28;20197;-82
2022/08/03 12:06:01;;;;;;;0.45;0.45;;;18.30;99.90;;;;;;5053481;28;20699;-82
2022/08/03 12:08:26;;;;;;;2.42;1.30;;;18.30;99.90;;;;;;5053534;28;20560;-83
2022/08/03 12:10:54;;;;;;;0.57;0.57;;;18.30;99.90;;;;;;5053809;28;20189;-82
2022/08/03 12:13:21;;;;;;;3.22;0.95;;;18.30;99.90;;;;;;5054625;28;20189;-83
2022/08/03 12:15:53;;;;;;;0.50;0.50;;;18.30;99.90;;;;;;5053824;28;20205;-83
2022/08/03 12:18:20;;;;;;;0.65;0.65;;;18.30;99.90;;;;;;5055169;28;20560;-83
2022/08/03 12:20:47;;;;;;;0.50;0.50;;;18.40;99.90;;;;;;5044119;28;20202;-83
2022/08/03 12:23:13;;;;;;;1.52;0.93;;;18.40;99.90;;;;;;5045620;28;20194;-83
2022/08/03 12:25:41;;;;;;;0.60;0.60;;;18.50;99.90;;;;;;5054995;28;20197;-83
2022/08/03 12:28:17;;;;;;;0.55;0.55;;;18.50;99.90;;;;;;5054926;28;20182;-83
2022/08/03 12:30:46;;;;;;;1.00;0.52;;;18.60;99.90;;;;;;5053473;28;20319;-83
2022/08/03 12:33:19;;;;;;;0.77;0.75;;;18.60;99.90;;;;;;5053454;28;20665;-82
2022/08/03 12:35:46;;;;;;;0.57;0.55;;;18.70;99.90;;;;;;5053199;28;20213;-82
2022/08/03 12:38:12;;;;;;;0.52;0.52;;;18.80;99.90;;;;;;5054390;28;20747;-81
2022/08/03 12:40:38;;;;;;;0.60;0.60;;;18.80;99.90;;;;;;5053032;28;20202;-81
2022/08/03 12:43:12;;;;;;;1.10;0.65;;;18.80;99.90;;;;;;5049453;28;20238;-81
2022/08/03 12:45:38;;;;;;;0.75;0.75;;;18.90;99.90;;;;;;5033119;28;20721;-81
2022/08/03 12:48:09;;;;;;;1.52;1.42;;;18.90;99.90;;;;;;5033618;28;20256;-81
2022/08/03 12:50:37;;;;;;;0.63;0.63;;;18.90;99.90;;;;;;5049055;28;20687;-81
2022/08/03 12:53:08;;;;;;;0.82;0.82;;;18.90;99.90;;;;;;5032963;28;20260;-82
2022/08/03 12:55:38;;;;;;;0.50;0.50;;;18.90;99.90;;;;;;5034461;28;20191;-82
2022/08/03 12:58:09;;;;;;;1.95;1.10;;;18.90;99.90;;;;;;5041301;28;20284;-82
2022/08/03 13:00:35;;;;;;;0.98;0.88;;;18.90;99.90;;;;;;5054063;28;20185;-82
2022/08/03 13:03:04;;;;;;;2.20;1.50;;;18.90;99.90;;;;;;5053094;28;20206;-82
2022/08/03 13:05:30;;;;;;;0.82;0.68;;;18.90;99.90;;;;;;5054721;28;20200;-82